createdAt,value
2023-04-11T00:01:34.991Z,11.57
2023-04-11T00:04:02.090Z,10.48
2023-04-11T00:06:29.160Z,9.73
2023-04-11T00:08:56.854Z,10.20
2023-04-11T00:11:24.153Z,9.48
2023-04-11T00:13:51.681Z,8.90
2023-04-11T00:16:19.506Z,10.40
2023-04-11T00:18:47.141Z,9.43
2023-04-11T00:21:13.938Z,8.93
2023-04-11T00:23:41.175Z,9.73
2023-04-11T00:26:08.406Z,8.63
2023-04-11T00:28:35.900Z,10.07
2023-04-11T00:31:02.988Z,9.23
2023-04-11T00:33:29.827Z,8.85
2023-04-11T00:35:56.631Z,11.93
2023-04-11T00:38:23.915Z,8.18
2023-04-11T00:40:50.694Z,9.65
2023-04-11T00:43:17.454Z,8.98
2023-04-11T00:45:44.417Z,8.70
2023-04-11T00:48:11.745Z,7.88
2023-04-11T00:50:42.850Z,8.25
2023-04-11T00:53:14.207Z,8.57
2023-04-11T00:55:41.133Z,7.47
2023-04-11T00:58:08.764Z,7.82
2023-04-11T01:00:35.611Z,9.15
2023-04-11T01:03:02.809Z,10.70
2023-04-11T01:05:33.143Z,8.48
2023-04-11T01:08:00.659Z,10.50
2023-04-11T01:10:30.699Z,8.93
2023-04-11T01:13:00.686Z,9.02
2023-04-11T01:15:27.967Z,8.88
2023-04-11T01:17:55.549Z,8.75
2023-04-11T01:20:22.988Z,9.25
2023-04-11T01:22:50.894Z,9.05
2023-04-11T01:25:22.314Z,8.75
2023-04-11T01:27:49.424Z,9.10
2023-04-11T01:30:16.685Z,12.10
2023-04-11T01:32:44.002Z,10.43
2023-04-11T01:35:12.627Z,8.40
2023-04-11T01:37:39.842Z,8.38
2023-04-11T01:40:07.630Z,8.23
2023-04-11T01:42:35.684Z,8.75
2023-04-11T01:45:04.270Z,8.60
2023-04-11T01:47:31.910Z,8.18
2023-04-11T01:49:59.298Z,9.90
2023-04-11T01:52:26.458Z,9.73
2023-04-11T01:54:53.259Z,8.85
2023-04-11T01:57:19.987Z,10.63
2023-04-11T01:59:47.364Z,8.65
2023-04-11T02:02:14.191Z,10.52
2023-04-11T02:04:42.586Z,9.48
2023-04-11T02:07:09.345Z,8.98
2023-04-11T02:09:37.093Z,8.45
2023-04-11T02:12:04.241Z,9.73
2023-04-11T02:14:41.990Z,8.25
2023-04-11T02:17:11.175Z,8.23
2023-04-11T02:19:41.083Z,9.85
2023-04-11T02:22:11.046Z,8.57
2023-04-11T02:24:38.233Z,8.73
2023-04-11T02:27:06.108Z,10.63
2023-04-11T02:29:33.915Z,8.70
2023-04-11T02:32:02.064Z,9.18
2023-04-11T02:34:29.020Z,9.75
2023-04-11T02:36:55.786Z,8.60
2023-04-11T02:39:26.354Z,8.95
2023-04-11T02:41:53.138Z,8.95
2023-04-11T02:44:20.053Z,9.20
2023-04-11T02:46:46.963Z,9.73
2023-04-11T02:49:13.886Z,10.35
2023-04-11T02:51:41.134Z,9.07
2023-04-11T02:54:08.245Z,9.57
2023-04-11T02:56:38.667Z,9.70
2023-04-11T02:59:06.721Z,9.38
2023-04-11T03:01:33.898Z,11.63
2023-04-11T03:04:01.341Z,9.00
2023-04-11T03:06:29.214Z,9.80
2023-04-11T03:08:56.200Z,11.82
2023-04-11T03:11:23.290Z,10.48
2023-04-11T03:13:50.384Z,11.10
2023-04-11T03:16:17.131Z,11.63
2023-04-11T03:18:43.946Z,10.80
2023-04-11T03:21:11.339Z,11.75
2023-04-11T03:23:38.866Z,10.57
2023-04-11T03:26:06.899Z,9.90
2023-04-11T03:28:33.946Z,10.75
2023-04-11T03:31:00.810Z,11.77
2023-04-11T03:33:27.721Z,12.15
2023-04-11T03:35:54.943Z,10.95
2023-04-11T03:38:21.772Z,14.75
2023-04-11T03:40:48.636Z,14.50
2023-04-11T03:43:16.772Z,11.20
2023-04-11T03:45:43.840Z,13.57
2023-04-11T03:48:10.895Z,12.20
2023-04-11T03:50:37.975Z,13.48
2023-04-11T03:53:05.737Z,12.35
2023-04-11T03:55:33.213Z,18.05
2023-04-11T03:58:00.440Z,12.25
2023-04-11T04:00:28.351Z,13.68
2023-04-11T04:02:55.318Z,13.80
2023-04-11T04:05:22.341Z,14.30
2023-04-11T04:07:49.129Z,11.90
2023-04-11T04:10:16.256Z,13.38
2023-04-11T04:12:43.530Z,14.13
2023-04-11T04:15:11.344Z,13.57
2023-04-11T04:17:38.172Z,15.30
2023-04-11T04:20:06.921Z,13.98
2023-04-11T04:22:33.920Z,12.25
2023-04-11T04:25:01.529Z,12.93
2023-04-11T04:27:28.416Z,11.23
2023-04-11T04:30:02.467Z,14.93
2023-04-11T04:32:31.197Z,14.65
2023-04-11T04:34:58.855Z,13.82
2023-04-11T04:37:27.148Z,15.50
2023-04-11T04:39:55.848Z,16.02
2023-04-11T04:42:26.362Z,16.85
2023-04-11T04:44:54.542Z,14.50
2023-04-11T04:47:29.118Z,14.30
2023-04-11T04:49:56.505Z,14.80
2023-04-11T04:52:27.436Z,13.30
2023-04-11T04:54:57.893Z,13.48
2023-04-11T04:57:29.310Z,16.67
2023-04-11T04:59:57.976Z,14.85
2023-04-11T05:02:28.411Z,13.80
2023-04-11T05:04:55.740Z,15.88
2023-04-11T05:07:22.621Z,16.58
2023-04-11T05:09:49.799Z,14.38
2023-04-11T05:12:17.299Z,14.98
2023-04-11T05:14:44.589Z,14.38
2023-04-11T05:17:11.337Z,16.80
2023-04-11T05:19:38.067Z,16.83
2023-04-11T05:22:05.539Z,16.92
2023-04-11T05:24:32.303Z,14.60
2023-04-11T05:27:00.479Z,16.13
2023-04-11T05:29:27.307Z,15.40
2023-04-11T05:31:54.121Z,17.10
2023-04-11T05:34:21.238Z,16.30
2023-04-11T05:36:48.225Z,15.82
2023-04-11T05:39:15.017Z,16.45
2023-04-11T05:41:41.986Z,14.38
2023-04-11T05:44:08.779Z,14.75
2023-04-11T05:46:36.929Z,14.70
2023-04-11T05:49:03.855Z,15.00
2023-04-11T05:51:30.798Z,15.32
2023-04-11T05:53:58.139Z,13.27
2023-04-11T05:56:25.252Z,16.05
2023-04-11T05:58:52.313Z,14.63
2023-04-11T06:01:19.565Z,12.75
2023-04-11T06:03:48.046Z,16.00
2023-04-11T06:06:15.076Z,13.80
2023-04-11T06:08:42.954Z,12.85
2023-04-11T06:11:11.115Z,13.10
2023-04-11T06:13:37.904Z,14.45
2023-04-11T06:16:06.452Z,13.43
2023-04-11T06:18:33.244Z,14.00
2023-04-11T06:20:59.969Z,13.38
2023-04-11T06:23:26.755Z,13.75
2023-04-11T06:25:53.553Z,13.00
2023-04-11T06:28:20.351Z,12.40
2023-04-11T06:30:47.120Z,11.10
2023-04-11T06:33:13.899Z,12.02
2023-04-11T06:35:40.833Z,12.00
2023-04-11T06:38:07.609Z,10.13
2023-04-11T06:40:34.511Z,10.57
2023-04-11T06:43:01.849Z,10.07
2023-04-11T06:45:29.093Z,12.90
2023-04-11T06:47:56.257Z,10.40
2023-04-11T06:50:23.152Z,12.70
2023-04-11T06:52:49.981Z,14.35
2023-04-11T06:55:17.163Z,11.00
2023-04-11T06:57:44.417Z,10.55
2023-04-11T07:00:13.074Z,10.80
2023-04-11T07:02:40.068Z,11.43
2023-04-11T07:05:09.377Z,11.13
2023-04-11T07:07:36.421Z,12.27
2023-04-11T07:10:05.047Z,11.45
2023-04-11T07:12:31.920Z,11.02
2023-04-11T07:14:58.726Z,11.10
2023-04-11T07:17:25.490Z,12.43
2023-04-11T07:19:52.327Z,11.57
2023-04-11T07:22:19.809Z,12.32
2023-04-11T07:24:46.744Z,9.70
2023-04-11T07:27:14.368Z,10.95
2023-04-11T07:29:42.174Z,10.20
2023-04-11T07:32:08.924Z,9.40
2023-04-11T07:34:35.685Z,9.00
2023-04-11T07:37:02.434Z,7.90
2023-04-11T07:39:29.359Z,6.22
2023-04-11T07:41:56.760Z,7.38
2023-04-11T07:44:24.114Z,6.07
2023-04-11T07:46:51.212Z,6.60
2023-04-11T07:49:17.964Z,6.15
2023-04-11T07:51:44.770Z,7.28
2023-04-11T07:54:12.294Z,6.28
2023-04-11T07:56:39.770Z,5.80
2023-04-11T07:59:06.548Z,6.32
2023-04-11T08:01:33.761Z,5.97
2023-04-11T08:04:01.002Z,4.10
2023-04-11T08:06:29.700Z,5.43
2023-04-11T08:08:58.551Z,4.57
2023-04-11T08:11:25.402Z,5.85
2023-04-11T08:13:52.192Z,4.13
2023-04-11T08:16:19.042Z,5.20
2023-04-11T08:18:45.982Z,3.33
2023-04-11T08:21:13.087Z,4.13
2023-04-11T08:23:42.224Z,3.55
2023-04-11T08:26:10.628Z,3.78
2023-04-11T08:28:37.494Z,2.33
2023-04-11T08:31:05.316Z,2.83
2023-04-11T08:33:33.412Z,2.17
2023-04-11T08:36:00.552Z,4.30
2023-04-11T08:38:27.382Z,2.92
2023-04-11T08:40:55.227Z,2.15
2023-04-11T08:43:22.417Z,3.40
2023-04-11T08:45:49.183Z,3.95
2023-04-11T08:48:16.660Z,4.95
2023-04-11T08:50:44.651Z,2.55
2023-04-11T08:53:12.078Z,2.08
2023-04-11T08:55:46.929Z,2.85
2023-04-11T08:58:14.744Z,2.55
2023-04-11T09:00:41.624Z,2.50
2023-04-11T09:03:10.421Z,2.95
2023-04-11T09:05:38.932Z,3.17
2023-04-11T09:08:08.027Z,2.38
2023-04-11T09:10:36.056Z,1.52
2023-04-11T09:13:21.201Z,3.35
2023-04-11T09:15:48.799Z,3.65
2023-04-11T09:18:35.896Z,3.28
2023-04-11T09:21:05.514Z,3.78
2023-04-11T09:23:32.506Z,5.53
2023-04-11T09:25:59.421Z,2.50
2023-04-11T09:28:26.166Z,3.95
2023-04-11T09:30:54.118Z,2.17
2023-04-11T09:33:31.506Z,3.22
2023-04-11T09:35:58.361Z,2.08
2023-04-11T09:38:36.326Z,2.65
2023-04-11T09:41:05.412Z,3.90
2023-04-11T09:43:51.324Z,6.00
2023-04-11T09:46:21.139Z,2.35
2023-04-11T09:48:50.141Z,3.13
2023-04-11T09:53:49.848Z,3.78
2023-04-11T09:56:17.784Z,2.47
2023-04-11T09:58:45.554Z,3.38
2023-04-11T10:01:14.069Z,4.70
2023-04-11T10:03:41.763Z,2.92
2023-04-11T10:06:31.378Z,1.92
2023-04-11T10:09:12.747Z,3.05
2023-04-11T10:11:46.021Z,4.82
2023-04-11T10:14:37.431Z,2.97
2023-04-11T10:17:23.633Z,3.58
2023-04-11T10:19:56.226Z,3.63
2023-04-11T10:22:41.738Z,2.83
2023-04-11T10:25:16.706Z,2.83
2023-04-11T10:28:00.657Z,3.92
2023-04-11T10:30:39.853Z,3.25
2023-04-11T10:33:11.608Z,4.03
2023-04-11T10:36:10.070Z,2.50
2023-04-11T10:38:37.325Z,4.63
2023-04-11T10:41:33.995Z,4.20
2023-04-11T10:44:14.101Z,4.95
2023-04-11T10:46:46.656Z,3.30
2023-04-11T10:49:35.388Z,3.17
2023-04-11T10:52:23.584Z,3.45
2023-04-11T10:54:52.980Z,5.25
2023-04-11T10:57:21.122Z,5.22
2023-04-11T10:59:47.830Z,3.50
2023-04-11T11:02:15.621Z,5.05
2023-04-11T11:04:43.243Z,3.53
2023-04-11T11:07:15.604Z,3.13
2023-04-11T11:09:48.806Z,2.70
2023-04-11T11:12:16.871Z,4.30
2023-04-11T11:14:46.016Z,3.92
2023-04-11T11:17:15.536Z,4.68
2023-04-11T11:19:46.644Z,6.32
2023-04-11T11:22:18.271Z,4.93
2023-04-11T11:24:45.239Z,6.88
2023-04-11T11:27:20.459Z,6.43
2023-04-11T11:29:47.378Z,3.17
2023-04-11T11:32:32.710Z,3.95
2023-04-11T11:35:00.151Z,2.63
2023-04-11T11:37:27.011Z,3.75
2023-04-11T11:39:54.087Z,3.50
2023-04-11T11:42:21.139Z,3.33
2023-04-11T11:44:48.109Z,3.42
2023-04-11T11:47:18.019Z,3.72
2023-04-11T11:49:55.479Z,4.25
2023-04-11T11:52:34.275Z,3.38
2023-04-11T11:55:06.134Z,3.17
2023-04-11T11:57:34.381Z,3.40
2023-04-11T12:00:05.688Z,5.20
2023-04-11T12:02:36.013Z,6.95
2023-04-11T12:05:06.310Z,3.88
2023-04-11T12:07:36.749Z,4.88
2023-04-11T12:10:09.067Z,3.38
2023-04-11T12:12:37.579Z,5.00
2023-04-11T12:15:18.551Z,4.72
2023-04-11T12:17:53.392Z,4.03
2023-04-11T12:20:27.361Z,5.25
2023-04-11T12:22:55.400Z,4.82
2023-04-11T12:25:22.986Z,4.60
2023-04-11T12:27:49.776Z,2.85
2023-04-11T12:30:16.770Z,2.78
2023-04-11T12:32:44.645Z,4.00
2023-04-11T12:35:12.572Z,3.05
2023-04-11T12:37:40.062Z,3.83
2023-04-11T12:40:12.070Z,4.72
2023-04-11T12:42:53.343Z,3.88
2023-04-11T12:45:23.167Z,3.28
2023-04-11T12:47:50.202Z,3.60
2023-04-11T12:50:17.673Z,3.28
2023-04-11T12:52:44.642Z,3.65
2023-04-11T12:55:13.348Z,3.08
2023-04-11T12:57:41.470Z,3.22
2023-04-11T13:00:10.579Z,4.05
2023-04-11T13:02:43.097Z,6.75
2023-04-11T13:05:14.107Z,2.10
2023-04-11T13:07:44.585Z,4.03
2023-04-11T13:10:11.895Z,3.45
2023-04-11T13:12:44.242Z,3.70
2023-04-11T13:15:13.130Z,3.67
2023-04-11T13:17:40.195Z,4.00
2023-04-11T13:20:09.905Z,5.07
2023-04-11T13:22:41.338Z,4.20
2023-04-11T13:25:09.660Z,2.22
2023-04-11T13:27:37.631Z,5.93
2023-04-11T13:30:04.948Z,5.28
2023-04-11T13:32:32.352Z,2.63
2023-04-11T13:34:59.384Z,4.70
2023-04-11T13:37:26.487Z,5.63
2023-04-11T13:39:53.248Z,4.07
2023-04-11T13:42:21.710Z,4.47
2023-04-11T13:44:48.566Z,4.45
2023-04-11T13:47:16.171Z,4.05
2023-04-11T13:49:42.961Z,4.28
2023-04-11T13:52:10.004Z,4.22
2023-04-11T13:54:39.057Z,5.05
2023-04-11T13:57:09.238Z,3.00
2023-04-11T13:59:36.269Z,2.60
2023-04-11T14:02:03.159Z,3.65
2023-04-11T14:04:30.820Z,8.20
2023-04-11T14:06:57.640Z,5.90
2023-04-11T14:09:24.440Z,6.05
2023-04-11T14:11:51.259Z,4.28
2023-04-11T14:14:17.990Z,2.90
2023-04-11T14:16:44.771Z,2.03
2023-04-11T14:19:11.603Z,4.03
2023-04-11T14:21:38.368Z,4.88
2023-04-11T14:24:05.769Z,5.22
2023-04-11T14:26:32.492Z,2.33
2023-04-11T14:28:59.606Z,2.97
2023-04-11T14:31:26.478Z,5.82
2023-04-11T14:33:53.751Z,4.65
2023-04-11T14:36:21.265Z,4.05
2023-04-11T14:38:49.110Z,5.63
2023-04-11T14:41:15.863Z,4.88
2023-04-11T14:43:42.576Z,2.72
2023-04-11T14:46:09.380Z,4.30
2023-04-11T14:48:36.572Z,3.28
2023-04-11T14:51:03.926Z,4.35
2023-04-11T14:53:31.195Z,2.35
2023-04-11T14:55:58.058Z,4.07
2023-04-11T14:58:24.819Z,3.15
2023-04-11T15:00:52.164Z,3.55
2023-04-11T15:03:19.153Z,1.27
2023-04-11T15:05:46.032Z,1.88
2023-04-11T15:08:13.590Z,3.63
2023-04-11T15:10:40.553Z,1.02
2023-04-11T15:13:09.120Z,4.97
2023-04-11T15:15:36.371Z,1.60
2023-04-11T15:18:21.644Z,3.88
2023-04-11T15:20:49.653Z,2.13
2023-04-11T15:23:18.894Z,2.70
2023-04-11T15:25:56.993Z,1.45
2023-04-11T15:28:24.849Z,1.10
2023-04-11T15:30:53.092Z,1.95
2023-04-11T15:33:22.052Z,3.75
2023-04-11T15:35:48.862Z,2.15
2023-04-11T15:38:16.567Z,2.15
2023-04-11T15:40:43.678Z,2.80
2023-04-11T15:43:10.631Z,1.92
2023-04-11T15:45:38.585Z,5.38
2023-04-11T15:48:05.592Z,6.00
2023-04-11T15:50:32.747Z,2.60
2023-04-11T15:52:59.481Z,2.00
2023-04-11T15:55:26.434Z,4.03
2023-04-11T15:57:53.443Z,2.72
2023-04-11T16:00:22.402Z,2.50
2023-04-11T16:02:50.142Z,1.98
2023-04-11T16:05:17.511Z,3.38
2023-04-11T16:07:44.426Z,5.25
2023-04-11T16:10:11.682Z,4.75
2023-04-11T16:12:38.639Z,4.18
2023-04-11T16:15:07.188Z,2.42
2023-04-11T16:17:34.106Z,3.45
2023-04-11T16:20:01.405Z,2.85
2023-04-11T16:22:28.368Z,7.30
2023-04-11T16:24:56.282Z,2.85
2023-04-11T16:27:23.158Z,1.83
2023-04-11T16:29:51.039Z,3.70
2023-04-11T16:32:17.770Z,2.30
2023-04-11T16:34:44.517Z,2.78
2023-04-11T16:37:11.886Z,3.90
2023-04-11T16:39:38.934Z,3.47
2023-04-11T16:42:06.075Z,2.80
2023-04-11T16:44:33.647Z,2.85
2023-04-11T16:47:01.090Z,3.25
2023-04-11T16:49:28.125Z,3.13
2023-04-11T16:51:56.148Z,3.80
2023-04-11T16:54:23.294Z,8.15
2023-04-11T16:56:51.021Z,4.10
2023-04-11T16:59:18.813Z,3.53
2023-04-11T17:01:45.797Z,6.00
2023-04-11T17:04:13.850Z,4.15
2023-04-11T17:06:41.330Z,5.68
2023-04-11T17:09:09.426Z,4.38
2023-04-11T17:11:43.941Z,5.65
2023-04-11T17:14:11.031Z,5.18
2023-04-11T17:16:38.244Z,5.32
2023-04-11T17:19:05.236Z,6.07
2023-04-11T17:21:32.618Z,4.80
2023-04-11T17:23:59.956Z,4.85
2023-04-11T17:26:27.068Z,4.07
2023-04-11T17:28:54.153Z,4.65
2023-04-11T17:31:21.662Z,5.43
2023-04-11T17:33:48.888Z,2.90
2023-04-11T17:36:15.676Z,5.88
2023-04-11T17:38:43.518Z,2.95
2023-04-11T17:41:14.922Z,4.25
2023-04-11T17:43:43.687Z,5.55
2023-04-11T17:46:12.277Z,5.55
2023-04-11T17:48:39.581Z,3.38
2023-04-11T17:51:06.781Z,4.88
2023-04-11T17:53:33.729Z,2.45
2023-04-11T17:56:05.901Z,3.85
2023-04-11T17:58:33.201Z,2.43
2023-04-11T18:01:00.118Z,4.00
2023-04-11T18:03:27.222Z,2.90
2023-04-11T18:05:54.944Z,5.40
2023-04-11T18:08:36.198Z,4.72
2023-04-11T18:11:09.791Z,2.45
2023-04-11T18:13:36.702Z,4.68
2023-04-11T18:16:04.283Z,3.92
2023-04-11T18:18:31.196Z,3.42
2023-04-11T18:21:07.087Z,5.10
2023-04-11T18:23:34.230Z,5.65
2023-04-11T18:26:01.609Z,4.85
2023-04-11T18:28:28.679Z,5.70
2023-04-11T18:30:55.551Z,6.05
2023-04-11T18:33:22.377Z,5.53
2023-04-11T18:35:49.198Z,7.28
2023-04-11T18:38:16.887Z,6.60
2023-04-11T18:40:43.822Z,5.72
2023-04-11T18:43:10.692Z,4.63
2023-04-11T18:45:38.398Z,3.75
2023-04-11T18:50:38.628Z,3.58
2023-04-11T18:53:08.979Z,3.10
2023-04-11T18:55:38.211Z,2.75
2023-04-11T18:58:08.996Z,3.03
2023-04-11T19:00:36.558Z,4.93
2023-04-11T19:03:05.001Z,3.53
2023-04-11T19:05:32.243Z,3.88
2023-04-11T19:08:00.125Z,4.07
2023-04-11T19:10:26.911Z,4.32
2023-04-11T19:12:53.683Z,5.38
2023-04-11T19:15:20.618Z,3.63
2023-04-11T19:17:47.518Z,3.28
2023-04-11T19:20:15.724Z,4.10
2023-04-11T19:22:42.850Z,5.78
2023-04-11T19:25:11.086Z,3.10
2023-04-11T19:27:42.285Z,4.30
2023-04-11T19:30:11.100Z,5.35
2023-04-11T19:32:40.616Z,3.60
2023-04-11T19:35:10.350Z,4.40
2023-04-11T19:37:37.872Z,6.13
2023-04-11T19:40:15.392Z,4.70
2023-04-11T19:42:43.029Z,3.95
2023-04-11T19:45:11.448Z,5.72
2023-04-11T19:47:39.853Z,3.47
2023-04-11T19:50:14.205Z,2.63
2023-04-11T19:52:42.311Z,3.55
2023-04-11T19:55:09.935Z,5.22
2023-04-11T19:57:40.896Z,5.93
2023-04-11T20:00:16.230Z,4.93
2023-04-11T20:02:50.387Z,6.82
2023-04-11T20:05:19.117Z,14.40
2023-04-11T20:07:46.606Z,28.02
2023-04-11T20:10:14.478Z,8.50
2023-04-11T20:12:41.437Z,14.68
2023-04-11T20:15:09.215Z,19.60
2023-04-11T20:17:36.206Z,5.93
2023-04-11T20:20:05.896Z,4.95
2023-04-11T20:22:33.111Z,4.80
2023-04-11T20:24:59.848Z,4.97
2023-04-11T20:27:28.023Z,5.07
2023-04-11T20:29:56.580Z,5.25
2023-04-11T20:32:23.384Z,4.05
2023-04-11T20:34:50.441Z,4.53
2023-04-11T20:37:18.893Z,3.40
2023-04-11T20:39:46.114Z,6.60
2023-04-11T20:42:13.599Z,5.45
2023-04-11T20:44:41.594Z,7.75
2023-04-11T20:47:09.094Z,4.35
2023-04-11T20:49:36.090Z,5.25
2023-04-11T20:52:02.862Z,10.38
2023-04-11T20:54:29.983Z,17.38
2023-04-11T20:56:56.991Z,14.02
2023-04-11T20:59:23.772Z,10.65
2023-04-11T21:01:50.764Z,12.45
2023-04-11T21:04:18.720Z,16.23
2023-04-11T21:06:46.378Z,16.10
2023-04-11T21:09:13.135Z,43.60
2023-04-11T21:11:39.842Z,35.42
2023-04-11T21:14:06.965Z,11.23
2023-04-11T21:16:34.024Z,21.08
2023-04-11T21:19:00.957Z,22.15
2023-04-11T21:21:28.208Z,19.10
2023-04-11T21:23:56.172Z,11.80
2023-04-11T21:26:23.612Z,12.43
2023-04-11T21:28:50.513Z,22.83
2023-04-11T21:31:17.418Z,12.35
2023-04-11T21:33:46.166Z,14.52
2023-04-11T21:36:12.960Z,14.82
2023-04-11T21:38:41.009Z,7.43
2023-04-11T21:41:08.086Z,8.15
2023-04-11T21:43:34.904Z,11.82
2023-04-11T21:46:01.697Z,8.80
2023-04-11T21:48:28.480Z,8.32
2023-04-11T21:50:55.641Z,5.72
2023-04-11T21:53:22.375Z,11.82
2023-04-11T21:55:49.432Z,12.07
2023-04-11T21:58:28.564Z,11.75
2023-04-11T22:00:56.179Z,14.73
2023-04-11T22:03:23.677Z,26.95
2023-04-11T22:05:52.177Z,26.67
2023-04-11T22:08:22.101Z,34.65
2023-04-11T22:10:50.516Z,24.02
2023-04-11T22:13:20.670Z,13.50
2023-04-11T22:16:05.120Z,12.15
2023-04-11T22:18:38.176Z,22.35
2023-04-11T22:21:09.003Z,15.95
2023-04-11T22:23:36.101Z,17.33
2023-04-11T22:26:03.585Z,17.15
2023-04-11T22:28:30.360Z,15.02
2023-04-11T22:30:57.773Z,20.33
2023-04-11T22:33:24.540Z,14.98
2023-04-11T22:35:51.471Z,21.13
2023-04-11T22:38:18.229Z,9.27
2023-04-11T22:40:45.024Z,25.25
2023-04-11T22:43:12.279Z,11.05
2023-04-11T22:45:39.182Z,12.82
2023-04-11T22:48:06.281Z,17.98
2023-04-11T22:50:38.900Z,7.40
2023-04-11T22:53:05.839Z,6.68
2023-04-11T22:55:34.265Z,6.30
2023-04-11T22:58:03.442Z,9.43
2023-04-11T23:00:31.389Z,42.13
2023-04-11T23:02:59.897Z,35.85
2023-04-11T23:05:26.861Z,21.13
2023-04-11T23:07:53.629Z,19.00
2023-04-11T23:10:20.433Z,16.05
2023-04-11T23:12:48.009Z,17.45
2023-04-11T23:15:15.201Z,10.32
2023-04-11T23:17:42.101Z,9.73
2023-04-11T23:20:11.059Z,7.22
2023-04-11T23:22:38.005Z,7.53
2023-04-11T23:25:05.103Z,10.73
2023-04-11T23:27:32.715Z,7.40
2023-04-11T23:29:59.990Z,6.18
2023-04-11T23:32:26.901Z,7.47
2023-04-11T23:34:54.158Z,9.85
2023-04-11T23:37:21.288Z,7.93
2023-04-11T23:39:48.048Z,7.75
2023-04-11T23:42:15.026Z,7.68
2023-04-11T23:44:41.765Z,7.00
2023-04-11T23:47:08.892Z,9.95
2023-04-11T23:49:35.732Z,8.02
2023-04-11T23:52:02.803Z,7.85
2023-04-11T23:54:30.470Z,20.52
2023-04-11T23:56:58.427Z,15.95
2023-04-11T23:59:25.294Z,31.25
